sensor_id;sensor_type;location;lat;lon;timestamp;P1;durP1;ratioP1;P2;durP2;ratioP2
10045;SDS011;5063;50.878;4.742;2023-04-22T00:00:33;9.07;;;7.80;;
10045;SDS011;5063;50.878;4.742;2023-04-22T00:02:59;9.13;;;7.23;;
10045;SDS011;5063;50.878;4.742;2023-04-22T00:05:27;8.80;;;7.90;;
10045;SDS011;5063;50.878;4.742;2023-04-22T00:07:53;9.97;;;7.70;;
10045;SDS011;5063;50.878;4.742;2023-04-22T00:10:19;9.00;;;7.73;;
10045;SDS011;5063;50.878;4.742;2023-04-22T00:12:44;10.93;;;8.97;;
10045;SDS011;5063;50.878;4.742;2023-04-22T00:15:10;10.93;;;8.70;;
10045;SDS011;5063;50.878;4.742;2023-04-22T00:17:36;8.30;;;7.40;;
10045;SDS011;5063;50.878;4.742;2023-04-22T00:20:02;8.13;;;7.33;;
10045;SDS011;5063;50.878;4.742;2023-04-22T00:22:28;10.53;;;8.50;;
10045;SDS011;5063;50.878;4.742;2023-04-22T00:24:54;8.87;;;7.97;;
10045;SDS011;5063;50.878;4.742;2023-04-22T00:27:20;8.87;;;8.00;;
10045;SDS011;5063;50.878;4.742;2023-04-22T00:29:45;9.73;;;7.83;;
10045;SDS011;5063;50.878;4.742;2023-04-22T00:32:11;9.23;;;8.23;;
10045;SDS011;5063;50.878;4.742;2023-04-22T00:34:37;9.37;;;7.80;;
10045;SDS011;5063;50.878;4.742;2023-04-22T00:37:02;10.77;;;9.00;;
10045;SDS011;5063;50.878;4.742;2023-04-22T00:39:28;9.43;;;8.47;;
10045;SDS011;5063;50.878;4.742;2023-04-22T00:41:54;10.00;;;7.80;;
10045;SDS011;5063;50.878;4.742;2023-04-22T00:44:21;9.83;;;8.53;;
10045;SDS011;5063;50.878;4.742;2023-04-22T00:46:48;11.57;;;9.23;;
10045;SDS011;5063;50.878;4.742;2023-04-22T00:49:15;12.23;;;9.47;;
10045;SDS011;5063;50.878;4.742;2023-04-22T00:51:41;11.40;;;9.30;;
10045;SDS011;5063;50.878;4.742;2023-04-22T00:54:07;10.90;;;9.30;;
10045;SDS011;5063;50.878;4.742;2023-04-22T00:56:33;11.37;;;9.67;;
10045;SDS011;5063;50.878;4.742;2023-04-22T00:59:02;12.80;;;10.63;;
10045;SDS011;5063;50.878;4.742;2023-04-22T01:01:29;14.90;;;11.30;;
10045;SDS011;5063;50.878;4.742;2023-04-22T01:03:54;17.67;;;11.70;;
10045;SDS011;5063;50.878;4.742;2023-04-22T01:06:21;15.07;;;11.17;;
10045;SDS011;5063;50.878;4.742;2023-04-22T01:08:48;14.80;;;11.53;;
10045;SDS011;5063;50.878;4.742;2023-04-22T01:11:14;15.77;;;12.80;;
10045;SDS011;5063;50.878;4.742;2023-04-22T01:13:40;15.00;;;12.80;;
10045;SDS011;5063;50.878;4.742;2023-04-22T01:16:06;17.03;;;13.23;;
10045;SDS011;5063;50.878;4.742;2023-04-22T01:18:33;16.50;;;13.83;;
10045;SDS011;5063;50.878;4.742;2023-04-22T01:21:00;21.67;;;14.80;;
10045;SDS011;5063;50.878;4.742;2023-04-22T01:23:26;21.60;;;15.60;;
10045;SDS011;5063;50.878;4.742;2023-04-22T01:25:52;21.53;;;15.87;;
10045;SDS011;5063;50.878;4.742;2023-04-22T01:28:18;23.37;;;18.30;;
10045;SDS011;5063;50.878;4.742;2023-04-22T01:30:44;22.37;;;17.97;;
10045;SDS011;5063;50.878;4.742;2023-04-22T01:33:10;22.93;;;18.30;;
10045;SDS011;5063;50.878;4.742;2023-04-22T01:35:36;23.83;;;19.10;;
10045;SDS011;5063;50.878;4.742;2023-04-22T01:38:03;23.23;;;17.93;;
10045;SDS011;5063;50.878;4.742;2023-04-22T01:40:30;24.70;;;17.97;;
10045;SDS011;5063;50.878;4.742;2023-04-22T01:42:59;25.47;;;16.60;;
10045;SDS011;5063;50.878;4.742;2023-04-22T01:45:26;24.63;;;17.87;;
10045;SDS011;5063;50.878;4.742;2023-04-22T01:47:53;25.30;;;18.13;;
10045;SDS011;5063;50.878;4.742;2023-04-22T01:50:19;25.87;;;20.80;;
10045;SDS011;5063;50.878;4.742;2023-04-22T01:52:46;26.37;;;19.23;;
10045;SDS011;5063;50.878;4.742;2023-04-22T01:55:12;28.67;;;21.63;;
10045;SDS011;5063;50.878;4.742;2023-04-22T01:57:37;26.37;;;20.90;;
10045;SDS011;5063;50.878;4.742;2023-04-22T02:00:03;25.13;;;18.77;;
10045;SDS011;5063;50.878;4.742;2023-04-22T02:02:30;27.33;;;19.37;;
10045;SDS011;5063;50.878;4.742;2023-04-22T02:04:56;24.23;;;19.27;;
10045;SDS011;5063;50.878;4.742;2023-04-22T02:07:22;22.60;;;18.10;;
10045;SDS011;5063;50.878;4.742;2023-04-22T02:09:48;24.43;;;19.93;;
10045;SDS011;5063;50.878;4.742;2023-04-22T02:12:14;28.80;;;20.67;;
10045;SDS011;5063;50.878;4.742;2023-04-22T02:14:40;26.23;;;20.00;;
10045;SDS011;5063;50.878;4.742;2023-04-22T02:17:06;26.93;;;20.97;;
10045;SDS011;5063;50.878;4.742;2023-04-22T02:19:31;25.83;;;19.47;;
10045;SDS011;5063;50.878;4.742;2023-04-22T02:21:57;28.30;;;20.23;;
10045;SDS011;5063;50.878;4.742;2023-04-22T02:24:23;26.17;;;21.00;;
10045;SDS011;5063;50.878;4.742;2023-04-22T02:26:49;27.47;;;20.87;;
10045;SDS011;5063;50.878;4.742;2023-04-22T02:29:14;28.10;;;20.40;;
10045;SDS011;5063;50.878;4.742;2023-04-22T02:31:41;26.13;;;20.10;;
10045;SDS011;5063;50.878;4.742;2023-04-22T02:34:07;29.80;;;21.93;;
10045;SDS011;5063;50.878;4.742;2023-04-22T02:36:33;29.90;;;21.70;;
10045;SDS011;5063;50.878;4.742;2023-04-22T02:38:59;29.30;;;20.73;;
10045;SDS011;5063;50.878;4.742;2023-04-22T02:41:29;26.37;;;19.93;;
10045;SDS011;5063;50.878;4.742;2023-04-22T02:43:55;25.87;;;19.43;;
10045;SDS011;5063;50.878;4.742;2023-04-22T02:46:20;27.67;;;21.70;;
10045;SDS011;5063;50.878;4.742;2023-04-22T02:48:46;26.70;;;21.43;;
10045;SDS011;5063;50.878;4.742;2023-04-22T02:51:13;26.43;;;20.70;;
10045;SDS011;5063;50.878;4.742;2023-04-22T02:53:39;28.67;;;20.70;;
10045;SDS011;5063;50.878;4.742;2023-04-22T02:56:05;28.13;;;20.50;;
10045;SDS011;5063;50.878;4.742;2023-04-22T02:58:32;25.13;;;19.47;;
10045;SDS011;5063;50.878;4.742;2023-04-22T03:00:58;22.57;;;18.07;;
10045;SDS011;5063;50.878;4.742;2023-04-22T03:03:24;30.57;;;20.13;;
10045;SDS011;5063;50.878;4.742;2023-04-22T03:05:50;24.73;;;18.80;;
10045;SDS011;5063;50.878;4.742;2023-04-22T03:08:16;24.17;;;20.13;;
10045;SDS011;5063;50.878;4.742;2023-04-22T03:10:42;27.80;;;21.20;;
10045;SDS011;5063;50.878;4.742;2023-04-22T03:13:07;28.13;;;20.73;;
10045;SDS011;5063;50.878;4.742;2023-04-22T03:15:33;27.60;;;21.27;;
10045;SDS011;5063;50.878;4.742;2023-04-22T03:17:59;28.87;;;21.47;;
10045;SDS011;5063;50.878;4.742;2023-04-22T03:20:25;25.87;;;20.30;;
10045;SDS011;5063;50.878;4.742;2023-04-22T03:22:50;26.87;;;20.10;;
10045;SDS011;5063;50.878;4.742;2023-04-22T03:25:16;26.10;;;20.23;;
10045;SDS011;5063;50.878;4.742;2023-04-22T03:27:42;29.20;;;20.50;;
10045;SDS011;5063;50.878;4.742;2023-04-22T03:30:08;26.77;;;19.80;;
10045;SDS011;5063;50.878;4.742;2023-04-22T03:32:34;26.17;;;18.50;;
10045;SDS011;5063;50.878;4.742;2023-04-22T03:35:00;28.80;;;20.27;;
10045;SDS011;5063;50.878;4.742;2023-04-22T03:37:26;25.47;;;19.50;;
10045;SDS011;5063;50.878;4.742;2023-04-22T03:39:52;27.73;;;19.47;;
10045;SDS011;5063;50.878;4.742;2023-04-22T03:42:18;26.33;;;19.67;;
10045;SDS011;5063;50.878;4.742;2023-04-22T03:44:43;27.50;;;21.07;;
10045;SDS011;5063;50.878;4.742;2023-04-22T03:47:10;26.37;;;20.20;;
10045;SDS011;5063;50.878;4.742;2023-04-22T03:49:35;28.20;;;21.03;;
10045;SDS011;5063;50.878;4.742;2023-04-22T03:52:01;27.07;;;19.33;;
10045;SDS011;5063;50.878;4.742;2023-04-22T03:54:27;28.93;;;21.17;;
10045;SDS011;5063;50.878;4.742;2023-04-22T03:56:53;26.70;;;20.83;;
10045;SDS011;5063;50.878;4.742;2023-04-22T03:59:19;27.20;;;20.30;;
10045;SDS011;5063;50.878;4.742;2023-04-22T04:01:46;26.70;;;19.23;;
10045;SDS011;5063;50.878;4.742;2023-04-22T04:04:12;25.43;;;19.37;;
10045;SDS011;5063;50.878;4.742;2023-04-22T04:06:37;26.13;;;20.07;;
10045;SDS011;5063;50.878;4.742;2023-04-22T04:09:03;26.53;;;19.70;;
10045;SDS011;5063;50.878;4.742;2023-04-22T04:11:30;26.47;;;19.07;;
10045;SDS011;5063;50.878;4.742;2023-04-22T04:13:55;25.00;;;19.23;;
10045;SDS011;5063;50.878;4.742;2023-04-22T04:16:21;23.00;;;18.00;;
10045;SDS011;5063;50.878;4.742;2023-04-22T04:18:50;26.67;;;20.47;;
10045;SDS011;5063;50.878;4.742;2023-04-22T04:21:16;27.93;;;21.17;;
10045;SDS011;5063;50.878;4.742;2023-04-22T04:23:42;26.90;;;20.10;;
10045;SDS011;5063;50.878;4.742;2023-04-22T04:26:08;27.93;;;19.97;;
10045;SDS011;5063;50.878;4.742;2023-04-22T04:28:34;24.50;;;19.10;;
10045;SDS011;5063;50.878;4.742;2023-04-22T04:31:00;28.00;;;20.50;;
10045;SDS011;5063;50.878;4.742;2023-04-22T04:33:29;30.90;;;22.77;;
10045;SDS011;5063;50.878;4.742;2023-04-22T04:35:58;25.30;;;19.60;;
10045;SDS011;5063;50.878;4.742;2023-04-22T04:38:25;25.87;;;20.13;;
10045;SDS011;5063;50.878;4.742;2023-04-22T04:40:51;26.33;;;19.83;;
10045;SDS011;5063;50.878;4.742;2023-04-22T04:43:17;28.80;;;20.30;;
10045;SDS011;5063;50.878;4.742;2023-04-22T04:45:44;26.50;;;20.17;;
10045;SDS011;5063;50.878;4.742;2023-04-22T04:48:11;24.40;;;18.57;;
10045;SDS011;5063;50.878;4.742;2023-04-22T04:50:39;28.93;;;21.73;;
10045;SDS011;5063;50.878;4.742;2023-04-22T04:53:08;28.50;;;21.13;;
10045;SDS011;5063;50.878;4.742;2023-04-22T04:55:34;25.03;;;19.53;;
10045;SDS011;5063;50.878;4.742;2023-04-22T04:58:00;28.33;;;20.63;;
10045;SDS011;5063;50.878;4.742;2023-04-22T05:00:26;27.47;;;19.67;;
10045;SDS011;5063;50.878;4.742;2023-04-22T05:02:52;22.70;;;18.27;;
10045;SDS011;5063;50.878;4.742;2023-04-22T05:05:18;27.17;;;20.33;;
10045;SDS011;5063;50.878;4.742;2023-04-22T05:07:44;22.63;;;17.70;;
10045;SDS011;5063;50.878;4.742;2023-04-22T05:10:10;25.93;;;19.23;;
10045;SDS011;5063;50.878;4.742;2023-04-22T05:12:35;25.63;;;19.53;;
10045;SDS011;5063;50.878;4.742;2023-04-22T05:15:01;24.43;;;18.70;;
10045;SDS011;5063;50.878;4.742;2023-04-22T05:17:27;23.90;;;18.70;;
10045;SDS011;5063;50.878;4.742;2023-04-22T05:19:53;23.97;;;18.43;;
10045;SDS011;5063;50.878;4.742;2023-04-22T05:22:19;24.17;;;19.00;;
10045;SDS011;5063;50.878;4.742;2023-04-22T05:24:44;25.67;;;18.77;;
10045;SDS011;5063;50.878;4.742;2023-04-22T05:27:10;28.40;;;20.47;;
10045;SDS011;5063;50.878;4.742;2023-04-22T05:29:36;26.90;;;20.57;;
10045;SDS011;5063;50.878;4.742;2023-04-22T05:32:02;28.37;;;20.23;;
10045;SDS011;5063;50.878;4.742;2023-04-22T05:34:27;28.40;;;19.90;;
10045;SDS011;5063;50.878;4.742;2023-04-22T05:36:53;27.33;;;20.73;;
10045;SDS011;5063;50.878;4.742;2023-04-22T05:39:19;25.33;;;19.97;;
10045;SDS011;5063;50.878;4.742;2023-04-22T05:41:45;27.97;;;21.83;;
10045;SDS011;5063;50.878;4.742;2023-04-22T05:44:10;28.70;;;21.90;;
10045;SDS011;5063;50.878;4.742;2023-04-22T05:46:36;26.57;;;20.63;;
10045;SDS011;5063;50.878;4.742;2023-04-22T05:49:02;28.93;;;21.33;;
10045;SDS011;5063;50.878;4.742;2023-04-22T05:51:28;26.60;;;20.93;;
10045;SDS011;5063;50.878;4.742;2023-04-22T05:53:55;29.57;;;20.40;;
10045;SDS011;5063;50.878;4.742;2023-04-22T05:56:20;25.27;;;19.87;;
10045;SDS011;5063;50.878;4.742;2023-04-22T05:58:46;23.70;;;19.30;;
10045;SDS011;5063;50.878;4.742;2023-04-22T06:01:12;23.13;;;19.20;;
10045;SDS011;5063;50.878;4.742;2023-04-22T06:03:38;23.53;;;19.23;;
10045;SDS011;5063;50.878;4.742;2023-04-22T06:06:04;22.60;;;18.37;;
10045;SDS011;5063;50.878;4.742;2023-04-22T06:08:30;23.40;;;18.10;;
10045;SDS011;5063;50.878;4.742;2023-04-22T06:10:56;24.10;;;18.67;;
10045;SDS011;5063;50.878;4.742;2023-04-22T06:13:22;21.33;;;17.03;;
10045;SDS011;5063;50.878;4.742;2023-04-22T06:15:48;19.53;;;16.80;;
10045;SDS011;5063;50.878;4.742;2023-04-22T06:18:13;18.43;;;15.80;;
10045;SDS011;5063;50.878;4.742;2023-04-22T06:20:39;19.40;;;15.07;;
10045;SDS011;5063;50.878;4.742;2023-04-22T06:23:05;15.13;;;13.53;;
10045;SDS011;5063;50.878;4.742;2023-04-22T06:25:31;15.73;;;13.90;;
10045;SDS011;5063;50.878;4.742;2023-04-22T06:27:57;15.90;;;13.23;;
10045;SDS011;5063;50.878;4.742;2023-04-22T06:30:23;14.73;;;13.20;;
10045;SDS011;5063;50.878;4.742;2023-04-22T06:32:50;15.03;;;13.07;;
10045;SDS011;5063;50.878;4.742;2023-04-22T06:35:16;17.10;;;13.87;;
10045;SDS011;5063;50.878;4.742;2023-04-22T06:37:42;11.90;;;10.63;;
10045;SDS011;5063;50.878;4.742;2023-04-22T06:40:09;15.00;;;11.90;;
10045;SDS011;5063;50.878;4.742;2023-04-22T06:42:35;13.90;;;11.27;;
10045;SDS011;5063;50.878;4.742;2023-04-22T06:45:02;10.87;;;9.77;;
10045;SDS011;5063;50.878;4.742;2023-04-22T06:47:28;13.33;;;10.73;;
10045;SDS011;5063;50.878;4.742;2023-04-22T06:49:54;11.80;;;10.10;;
10045;SDS011;5063;50.878;4.742;2023-04-22T06:52:20;11.33;;;10.27;;
10045;SDS011;5063;50.878;4.742;2023-04-22T06:54:46;10.97;;;9.87;;
10045;SDS011;5063;50.878;4.742;2023-04-22T06:57:11;11.30;;;10.10;;
10045;SDS011;5063;50.878;4.742;2023-04-22T06:59:37;11.17;;;9.40;;
10045;SDS011;5063;50.878;4.742;2023-04-22T07:02:03;11.27;;;10.00;;
10045;SDS011;5063;50.878;4.742;2023-04-22T07:04:30;10.63;;;8.97;;
10045;SDS011;5063;50.878;4.742;2023-04-22T07:06:56;10.63;;;8.20;;
10045;SDS011;5063;50.878;4.742;2023-04-22T07:09:22;9.07;;;7.77;;
10045;SDS011;5063;50.878;4.742;2023-04-22T07:11:48;9.93;;;8.00;;
10045;SDS011;5063;50.878;4.742;2023-04-22T07:14:14;8.40;;;7.60;;
10045;SDS011;5063;50.878;4.742;2023-04-22T07:16:39;9.23;;;7.80;;
10045;SDS011;5063;50.878;4.742;2023-04-22T07:19:05;9.07;;;8.17;;
10045;SDS011;5063;50.878;4.742;2023-04-22T07:21:31;9.67;;;7.93;;
10045;SDS011;5063;50.878;4.742;2023-04-22T07:23:57;7.93;;;7.13;;
10045;SDS011;5063;50.878;4.742;2023-04-22T07:26:23;8.37;;;7.30;;
10045;SDS011;5063;50.878;4.742;2023-04-22T07:28:49;9.20;;;8.17;;
10045;SDS011;5063;50.878;4.742;2023-04-22T07:31:15;9.83;;;8.83;;
10045;SDS011;5063;50.878;4.742;2023-04-22T07:33:40;8.87;;;7.97;;
10045;SDS011;5063;50.878;4.742;2023-04-22T07:36:06;10.13;;;8.13;;
10045;SDS011;5063;50.878;4.742;2023-04-22T07:38:32;9.93;;;7.30;;
10045;SDS011;5063;50.878;4.742;2023-04-22T07:40:58;10.50;;;7.37;;
10045;SDS011;5063;50.878;4.742;2023-04-22T07:43:23;7.90;;;7.10;;
10045;SDS011;5063;50.878;4.742;2023-04-22T07:45:49;7.50;;;6.80;;
10045;SDS011;5063;50.878;4.742;2023-04-22T07:48:15;8.40;;;7.60;;
10045;SDS011;5063;50.878;4.742;2023-04-22T07:50:41;9.27;;;8.03;;
10045;SDS011;5063;50.878;4.742;2023-04-22T07:53:07;10.00;;;7.40;;
10045;SDS011;5063;50.878;4.742;2023-04-22T07:55:35;8.53;;;7.23;;
10045;SDS011;5063;50.878;4.742;2023-04-22T07:58:01;8.77;;;7.57;;
10045;SDS011;5063;50.878;4.742;2023-04-22T08:00:31;10.63;;;7.43;;
10045;SDS011;5063;50.878;4.742;2023-04-22T08:02:57;9.27;;;7.03;;
10045;SDS011;5063;50.878;4.742;2023-04-22T08:05:23;8.03;;;6.87;;
10045;SDS011;5063;50.878;4.742;2023-04-22T08:07:49;9.03;;;7.00;;
10045;SDS011;5063;50.878;4.742;2023-04-22T08:10:14;7.23;;;6.53;;
10045;SDS011;5063;50.878;4.742;2023-04-22T08:12:40;7.77;;;5.80;;
10045;SDS011;5063;50.878;4.742;2023-04-22T08:15:07;7.60;;;6.23;;
10045;SDS011;5063;50.878;4.742;2023-04-22T08:17:33;6.57;;;5.97;;
10045;SDS011;5063;50.878;4.742;2023-04-22T08:19:59;7.07;;;6.17;;
10045;SDS011;5063;50.878;4.742;2023-04-22T08:22:24;6.20;;;5.60;;
10045;SDS011;5063;50.878;4.742;2023-04-22T08:24:51;6.40;;;5.67;;
10045;SDS011;5063;50.878;4.742;2023-04-22T08:27:17;6.47;;;5.87;;
10045;SDS011;5063;50.878;4.742;2023-04-22T08:29:45;6.23;;;5.43;;
10045;SDS011;5063;50.878;4.742;2023-04-22T08:32:11;8.27;;;6.30;;
10045;SDS011;5063;50.878;4.742;2023-04-22T08:34:37;6.23;;;5.63;;
10045;SDS011;5063;50.878;4.742;2023-04-22T08:37:02;6.82;;;6.20;;
10045;SDS011;5063;50.878;4.742;2023-04-22T08:39:28;8.10;;;7.25;;
10045;SDS011;5063;50.878;4.742;2023-04-22T08:41:54;7.13;;;6.43;;
10045;SDS011;5063;50.878;4.742;2023-04-22T08:44:22;6.97;;;5.80;;
10045;SDS011;5063;50.878;4.742;2023-04-22T08:46:48;9.17;;;6.30;;
10045;SDS011;5063;50.878;4.742;2023-04-22T08:49:15;8.07;;;6.00;;
10045;SDS011;5063;50.878;4.742;2023-04-22T08:51:44;7.90;;;6.80;;
10045;SDS011;5063;50.878;4.742;2023-04-22T08:54:10;10.20;;;6.90;;
10045;SDS011;5063;50.878;4.742;2023-04-22T08:56:39;7.17;;;6.47;;
10045;SDS011;5063;50.878;4.742;2023-04-22T08:59:06;7.40;;;6.60;;
10045;SDS011;5063;50.878;4.742;2023-04-22T09:01:37;7.53;;;6.83;;
10045;SDS011;5063;50.878;4.742;2023-04-22T09:04:05;8.90;;;6.57;;
10045;SDS011;5063;50.878;4.742;2023-04-22T09:06:31;7.07;;;6.37;;
10045;SDS011;5063;50.878;4.742;2023-04-22T09:08:57;7.23;;;6.53;;
10045;SDS011;5063;50.878;4.742;2023-04-22T09:11:28;8.07;;;6.37;;
10045;SDS011;5063;50.878;4.742;2023-04-22T09:13:55;7.50;;;6.63;;
10045;SDS011;5063;50.878;4.742;2023-04-22T09:16:21;7.80;;;6.77;;
10045;SDS011;5063;50.878;4.742;2023-04-22T09:18:47;7.53;;;6.73;;
10045;SDS011;5063;50.878;4.742;2023-04-22T09:21:14;7.40;;;6.70;;
10045;SDS011;5063;50.878;4.742;2023-04-22T09:23:48;8.03;;;6.00;;
10045;SDS011;5063;50.878;4.742;2023-04-22T09:26:24;6.83;;;6.20;;
10045;SDS011;5063;50.878;4.742;2023-04-22T09:28:50;6.17;;;5.57;;
10045;SDS011;5063;50.878;4.742;2023-04-22T09:31:17;6.77;;;6.07;;
10045;SDS011;5063;50.878;4.742;2023-04-22T09:33:48;9.40;;;6.30;;
10045;SDS011;5063;50.878;4.742;2023-04-22T09:36:26;6.40;;;5.80;;
10045;SDS011;5063;50.878;4.742;2023-04-22T09:38:53;6.30;;;5.70;;
10045;SDS011;5063;50.878;4.742;2023-04-22T09:41:26;6.63;;;5.80;;
10045;SDS011;5063;50.878;4.742;2023-04-22T09:43:58;6.43;;;5.83;;
10045;SDS011;5063;50.878;4.742;2023-04-22T09:46:25;8.23;;;6.57;;
10045;SDS011;5063;50.878;4.742;2023-04-22T09:48:53;9.93;;;5.67;;
10045;SDS011;5063;50.878;4.742;2023-04-22T09:51:21;7.10;;;4.33;;
10045;SDS011;5063;50.878;4.742;2023-04-22T09:54:00;5.23;;;4.40;;
10045;SDS011;5063;50.878;4.742;2023-04-22T09:56:40;5.53;;;4.40;;
10045;SDS011;5063;50.878;4.742;2023-04-22T09:59:09;5.20;;;4.70;;
10045;SDS011;5063;50.878;4.742;2023-04-22T10:01:39;6.30;;;5.27;;
10045;SDS011;5063;50.878;4.742;2023-04-22T10:04:06;5.50;;;4.83;;
10045;SDS011;5063;50.878;4.742;2023-04-22T10:06:34;5.37;;;4.87;;
10045;SDS011;5063;50.878;4.742;2023-04-22T10:09:00;5.87;;;5.27;;
10045;SDS011;5063;50.878;4.742;2023-04-22T10:11:27;6.97;;;5.33;;
10045;SDS011;5063;50.878;4.742;2023-04-22T10:13:53;7.93;;;5.27;;
10045;SDS011;5063;50.878;4.742;2023-04-22T10:16:19;7.10;;;4.90;;
10045;SDS011;5063;50.878;4.742;2023-04-22T10:18:46;8.07;;;4.90;;
10045;SDS011;5063;50.878;4.742;2023-04-22T10:21:13;7.30;;;4.80;;
10045;SDS011;5063;50.878;4.742;2023-04-22T10:23:44;7.20;;;4.93;;
10045;SDS011;5063;50.878;4.742;2023-04-22T10:26:11;6.80;;;4.57;;
10045;SDS011;5063;50.878;4.742;2023-04-22T10:28:40;8.40;;;5.00;;
10045;SDS011;5063;50.878;4.742;2023-04-22T10:31:20;7.73;;;5.43;;
10045;SDS011;5063;50.878;4.742;2023-04-22T10:33:46;7.20;;;4.73;;
10045;SDS011;5063;50.878;4.742;2023-04-22T10:36:16;5.17;;;4.57;;
10045;SDS011;5063;50.878;4.742;2023-04-22T10:41:25;5.27;;;4.77;;
10045;SDS011;5063;50.878;4.742;2023-04-22T10:43:56;5.53;;;4.63;;
10045;SDS011;5063;50.878;4.742;2023-04-22T10:48:55;5.53;;;4.97;;
10045;SDS011;5063;50.878;4.742;2023-04-22T10:51:40;5.40;;;4.40;;
10045;SDS011;5063;50.878;4.742;2023-04-22T10:59:44;5.03;;;4.57;;
10045;SDS011;5063;50.878;4.742;2023-04-22T11:02:13;5.40;;;4.90;;
10045;SDS011;5063;50.878;4.742;2023-04-22T11:04:40;7.93;;;5.07;;
10045;SDS011;5063;50.878;4.742;2023-04-22T11:10:11;5.53;;;5.03;;
10045;SDS011;5063;50.878;4.742;2023-04-22T11:12:41;7.03;;;4.73;;
10045;SDS011;5063;50.878;4.742;2023-04-22T11:15:12;7.57;;;4.53;;
10045;SDS011;5063;50.878;4.742;2023-04-22T11:17:43;6.00;;;4.87;;
10045;SDS011;5063;50.878;4.742;2023-04-22T11:20:11;7.43;;;5.40;;
10045;SDS011;5063;50.878;4.742;2023-04-22T11:22:41;5.77;;;5.00;;
10045;SDS011;5063;50.878;4.742;2023-04-22T11:25:11;4.87;;;4.40;;
10045;SDS011;5063;50.878;4.742;2023-04-22T11:27:38;6.70;;;5.00;;
10045;SDS011;5063;50.878;4.742;2023-04-22T11:32:36;5.57;;;4.20;;
10045;SDS011;5063;50.878;4.742;2023-04-22T11:35:04;4.67;;;4.07;;
10045;SDS011;5063;50.878;4.742;2023-04-22T11:38:17;4.20;;;3.90;;
10045;SDS011;5063;50.878;4.742;2023-04-22T11:40:26;4.90;;;4.00;;
10045;SDS011;5063;50.878;4.742;2023-04-22T11:42:55;7.37;;;4.50;;
10045;SDS011;5063;50.878;4.742;2023-04-22T11:45:22;5.70;;;4.07;;
10045;SDS011;5063;50.878;4.742;2023-04-22T11:47:49;4.13;;;3.73;;
10045;SDS011;5063;50.878;4.742;2023-04-22T11:50:16;4.70;;;4.30;;
10045;SDS011;5063;50.878;4.742;2023-04-22T11:52:55;4.47;;;4.07;;
10045;SDS011;5063;50.878;4.742;2023-04-22T11:55:29;5.57;;;4.37;;
10045;SDS011;5063;50.878;4.742;2023-04-22T11:58:00;4.67;;;3.80;;
10045;SDS011;5063;50.878;4.742;2023-04-22T12:00:35;5.73;;;4.07;;
10045;SDS011;5063;50.878;4.742;2023-04-22T12:03:03;4.13;;;3.73;;
10045;SDS011;5063;50.878;4.742;2023-04-22T12:06:15;5.43;;;4.13;;
10045;SDS011;5063;50.878;4.742;2023-04-22T12:08:34;4.47;;;4.03;;
10045;SDS011;5063;50.878;4.742;2023-04-22T12:11:02;5.73;;;3.60;;
10045;SDS011;5063;50.878;4.742;2023-04-22T12:13:38;4.93;;;3.70;;
10045;SDS011;5063;50.878;4.742;2023-04-22T12:16:10;4.23;;;3.87;;
10045;SDS011;5063;50.878;4.742;2023-04-22T12:18:38;4.53;;;4.13;;
10045;SDS011;5063;50.878;4.742;2023-04-22T12:23:44;5.23;;;4.73;;
10045;SDS011;5063;50.878;4.742;2023-04-22T12:26:10;5.93;;;4.40;;
10045;SDS011;5063;50.878;4.742;2023-04-22T12:28:37;5.03;;;4.53;;
10045;SDS011;5063;50.878;4.742;2023-04-22T12:31:03;4.63;;;4.23;;
10045;SDS011;5063;50.878;4.742;2023-04-22T12:33:30;5.20;;;4.70;;
10045;SDS011;5063;50.878;4.742;2023-04-22T12:35:56;5.13;;;4.50;;
10045;SDS011;5063;50.878;4.742;2023-04-22T12:38:22;5.73;;;4.33;;
10045;SDS011;5063;50.878;4.742;2023-04-22T12:40:48;4.97;;;4.37;;
10045;SDS011;5063;50.878;4.742;2023-04-22T12:43:15;5.33;;;4.83;;
10045;SDS011;5063;50.878;4.742;2023-04-22T12:45:41;7.67;;;4.53;;
10045;SDS011;5063;50.878;4.742;2023-04-22T12:48:07;4.80;;;4.30;;
10045;SDS011;5063;50.878;4.742;2023-04-22T12:50:32;4.83;;;4.43;;
10045;SDS011;5063;50.878;4.742;2023-04-22T12:52:58;4.93;;;4.40;;
10045;SDS011;5063;50.878;4.742;2023-04-22T12:55:24;5.50;;;4.50;;
10045;SDS011;5063;50.878;4.742;2023-04-22T12:57:50;5.97;;;4.63;;
10045;SDS011;5063;50.878;4.742;2023-04-22T13:00:16;4.93;;;4.50;;
10045;SDS011;5063;50.878;4.742;2023-04-22T13:02:43;5.37;;;4.87;;
10045;SDS011;5063;50.878;4.742;2023-04-22T13:05:10;5.03;;;4.50;;
10045;SDS011;5063;50.878;4.742;2023-04-22T13:07:37;5.03;;;4.60;;
10045;SDS011;5063;50.878;4.742;2023-04-22T13:10:04;5.60;;;4.97;;
10045;SDS011;5063;50.878;4.742;2023-04-22T13:12:31;6.20;;;4.00;;
10045;SDS011;5063;50.878;4.742;2023-04-22T13:14:57;4.07;;;3.77;;
10045;SDS011;5063;50.878;4.742;2023-04-22T13:17:22;4.70;;;4.30;;
10045;SDS011;5063;50.878;4.742;2023-04-22T13:19:48;5.47;;;4.53;;
10045;SDS011;5063;50.878;4.742;2023-04-22T13:22:15;5.17;;;3.80;;
10045;SDS011;5063;50.878;4.742;2023-04-22T13:24:42;4.10;;;3.23;;
10045;SDS011;5063;50.878;4.742;2023-04-22T13:27:07;3.50;;;3.20;;
10045;SDS011;5063;50.878;4.742;2023-04-22T13:29:34;3.63;;;3.33;;
10045;SDS011;5063;50.878;4.742;2023-04-22T13:32:00;3.43;;;3.13;;
10045;SDS011;5063;50.878;4.742;2023-04-22T13:34:26;2.90;;;2.70;;
10045;SDS011;5063;50.878;4.742;2023-04-22T13:36:52;2.70;;;2.50;;
10045;SDS011;5063;50.878;4.742;2023-04-22T13:39:18;2.70;;;2.50;;
10045;SDS011;5063;50.878;4.742;2023-04-22T13:41:44;2.90;;;2.70;;
10045;SDS011;5063;50.878;4.742;2023-04-22T13:44:10;2.73;;;2.47;;
10045;SDS011;5063;50.878;4.742;2023-04-22T13:46:36;2.50;;;2.30;;
10045;SDS011;5063;50.878;4.742;2023-04-22T13:49:03;2.60;;;2.40;;
10045;SDS011;5063;50.878;4.742;2023-04-22T13:51:29;2.60;;;2.40;;
10045;SDS011;5063;50.878;4.742;2023-04-22T13:53:56;2.57;;;2.30;;
10045;SDS011;5063;50.878;4.742;2023-04-22T13:56:22;2.60;;;2.40;;
10045;SDS011;5063;50.878;4.742;2023-04-22T13:58:49;2.40;;;2.20;;
10045;SDS011;5063;50.878;4.742;2023-04-22T14:01:15;2.47;;;2.27;;
10045;SDS011;5063;50.878;4.742;2023-04-22T14:03:42;1.80;;;1.70;;
10045;SDS011;5063;50.878;4.742;2023-04-22T14:06:08;1.80;;;1.70;;
10045;SDS011;5063;50.878;4.742;2023-04-22T14:08:34;2.00;;;1.80;;
10045;SDS011;5063;50.878;4.742;2023-04-22T14:11:03;2.20;;;2.00;;
10045;SDS011;5063;50.878;4.742;2023-04-22T14:13:30;1.97;;;1.87;;
10045;SDS011;5063;50.878;4.742;2023-04-22T14:15:56;2.40;;;2.20;;
10045;SDS011;5063;50.878;4.742;2023-04-22T14:18:22;2.10;;;1.93;;
10045;SDS011;5063;50.878;4.742;2023-04-22T14:20:49;3.57;;;1.70;;
10045;SDS011;5063;50.878;4.742;2023-04-22T14:23:16;1.70;;;1.60;;
10045;SDS011;5063;50.878;4.742;2023-04-22T14:25:43;1.87;;;1.77;;
10045;SDS011;5063;50.878;4.742;2023-04-22T14:28:10;1.73;;;1.63;;
10045;SDS011;5063;50.878;4.742;2023-04-22T14:30:37;1.43;;;1.37;;
10045;SDS011;5063;50.878;4.742;2023-04-22T14:33:03;1.50;;;1.40;;
10045;SDS011;5063;50.878;4.742;2023-04-22T14:35:32;3.80;;;1.47;;
10045;SDS011;5063;50.878;4.742;2023-04-22T14:37:58;1.20;;;1.10;;
10045;SDS011;5063;50.878;4.742;2023-04-22T14:40:25;0.93;;;0.93;;
10045;SDS011;5063;50.878;4.742;2023-04-22T14:42:56;1.07;;;0.97;;
10045;SDS011;5063;50.878;4.742;2023-04-22T14:45:23;1.07;;;1.00;;
10045;SDS011;5063;50.878;4.742;2023-04-22T14:47:49;1.40;;;1.30;;
10045;SDS011;5063;50.878;4.742;2023-04-22T14:50:16;1.40;;;1.30;;
10045;SDS011;5063;50.878;4.742;2023-04-22T14:52:41;1.30;;;1.20;;
10045;SDS011;5063;50.878;4.742;2023-04-22T14:55:08;1.57;;;1.47;;
10045;SDS011;5063;50.878;4.742;2023-04-22T14:57:34;5.00;;;4.60;;
10045;SDS011;5063;50.878;4.742;2023-04-22T15:00:00;8.53;;;7.63;;
10045;SDS011;5063;50.878;4.742;2023-04-22T15:02:26;10.37;;;9.37;;
10045;SDS011;5063;50.878;4.742;2023-04-22T15:04:51;14.50;;;12.87;;
10045;SDS011;5063;50.878;4.742;2023-04-22T15:07:17;14.43;;;13.03;;